Track Нестерова Ирина

Time Latitude Longitude Accuracy (66% radius in meters) Altitude (meters) Speed (km/hour) Bearing (degrees) Battery (%) GPS flag
10:09:27 55.737897 37.299048 10 168 0 215.13645935059 63 1 delete
10:09:22 55.737908 37.299064 10 171 0 274.03283691406 63 1 delete
10:09:15 55.737917 37.299086 5 168 0 274.03283691406 63 1 delete
10:09:05 55.737917 37.299086 5 171 0 274.03283691406 63 1 delete
10:08:53 55.737917 37.299086 5 169 0 274.03283691406 63 1 delete
10:08:42 55.737925 37.299091 5 167 0 274.03283691406 68 1 delete
10:08:30 55.737946 37.299132 10 172 0 14.821968078613 68 1 delete
10:08:19 55.737949 37.299136 5 166 0 14.821968078613 68 1 delete
10:08:12 55.737939 37.299127 5 167 0.14054115116596 19.566453933716 68 1 delete
10:08:07 55.737918 37.299108 5 166 0 33.185432434082 68 1 delete
10:07:55 55.737916 37.299112 5 170 0 33.185432434082 68 1 delete
10:07:49 55.737900 37.299073 5 174 0 200.8440246582 68 1 delete
10:07:44 55.737870 37.299019 5 174 0 215.00238037109 68 1 delete
10:07:32 55.737852 37.298992 5 170 0 197.89045715332 68 1 delete
10:07:21 55.737867 37.298990 10 172 0 197.89045715332 68 1 delete
10:07:19 55.737876 37.298993 5 175 0 201.1360168457 68 1 delete
10:07:06 55.737892 37.299027 5 179 0 248.52052307129 68 1 delete
10:06:54 55.737891 37.299024 5 169 0 248.52052307129 68 1 delete
10:06:43 55.737891 37.299022 10 166 0 248.52052307129 68 1 delete
10:06:31 55.737891 37.299023 10 173 0 248.52052307129 68 1 delete
10:06:20 55.737884 37.299023 10 171 0 248.52052307129 68 1 delete
10:06:08 55.737876 37.299020 5 172 0 248.52052307129 68 1 delete
10:05:57 55.737876 37.299020 10 172 0 248.52052307129 68 1 delete
10:05:45 55.737876 37.299020 5 170 0 248.52052307129 68 1 delete
10:05:31 55.737876 37.299020 5 175 0 248.52052307129 68 1 delete
10:05:19 55.737876 37.299020 5 176 0 248.52052307129 68 1 delete
10:05:08 55.737876 37.299020 5 175 0 248.52052307129 68 1 delete
10:04:56 55.737876 37.299020 10 169 0 248.52052307129 68 1 delete
10:04:44 55.737877 37.299022 5 164 0 236.55235290527 68 1 delete
10:04:32 55.737882 37.299023 5 166 0 18.447584152222 68 1 delete
10:04:20 55.737881 37.299020 5 167 0 159.78591918945 68 1 delete
10:04:09 55.737885 37.299017 5 167 0 198.3296661377 68 1 delete
10:03:57 55.737885 37.299017 5 165 0 198.3296661377 68 1 delete
10:03:45 55.737892 37.299016 5 166 0 191.61299133301 68 1 delete
10:03:33 55.737892 37.299016 5 172 0 191.61299133301 68 1 delete
10:03:21 55.737893 37.299012 5 175 0 191.61299133301 68 1 delete
10:03:08 55.737893 37.299012 5 172 0 191.61299133301 68 1 delete
10:02:56 55.737902 37.299006 10 177 0 7.3798508644104 68 1 delete
10:02:44 55.737899 37.299003 10 182 0 179.48965454102 68 1 delete
10:02:33 55.737899 37.299003 5 179 0 179.48965454102 68 1 delete
10:02:21 55.737897 37.298990 5 182 0.37643563747406 191.70835876465 68 1 delete
10:02:10 55.737890 37.298985 5 184 0 213.64404296875 68 1 delete
10:01:58 55.737887 37.298984 5 183 0 213.64404296875 68 1 delete
10:01:46 55.737886 37.298989 5 175 0 202.50094604492 68 1 delete
10:01:34 55.737885 37.298990 5 187 0.058628898113966 202.50094604492 68 1 delete
10:01:22 55.737885 37.298996 5 173 0 183.49815368652 68 1 delete
10:01:10 55.737885 37.298996 5 168 0 183.49815368652 68 1 delete
10:00:59 55.737885 37.298996 5 154 0 183.49815368652 68 1 delete
10:00:47 55.737885 37.298996 5 167 0 183.49815368652 68 1 delete
10:00:36 55.737894 37.298998 5 177 0 183.49815368652 68 1 delete